createdAt,value
2023-05-08T00:00:22.364Z,46
2023-05-08T00:02:23.576Z,49.9
2023-05-08T00:04:24.600Z,44.7
2023-05-08T00:06:25.689Z,40.1
2023-05-08T00:10:31.027Z,47.3
2023-05-08T00:12:32.161Z,46.9
2023-05-08T00:14:33.278Z,50.4
2023-05-08T00:15:35.409Z,46.2
2023-05-08T00:31:47.511Z,39.9
2023-05-08T00:43:57.298Z,47.6
2023-05-08T00:45:58.463Z,48.1
2023-05-08T00:54:06.008Z,50.8
2023-05-08T00:56:07.104Z,54.3
2023-05-08T00:58:08.290Z,51.9
2023-05-08T01:00:09.386Z,57.3
2023-05-08T01:02:10.509Z,57
2023-05-08T01:06:16.018Z,54.1
2023-05-08T01:08:17.120Z,48.8
2023-05-08T01:11:20.344Z,56.1
2023-05-08T01:13:21.618Z,68.7
2023-05-08T01:15:22.592Z,54.6
2023-05-08T01:17:23.709Z,49.6
2023-05-08T01:19:28.060Z,53.9
2023-05-08T01:21:29.139Z,51.6
2023-05-08T01:23:30.283Z,56
2023-05-08T01:31:34.869Z,48.1
2023-05-08T01:39:42.467Z,48.6
2023-05-08T01:41:43.605Z,50
2023-05-08T01:45:45.815Z,56.6
2023-05-08T01:47:50.139Z,50.6
2023-05-08T01:49:51.192Z,47.1
2023-05-08T01:51:52.304Z,53.5
2023-05-08T01:53:53.419Z,53.7
2023-05-08T01:55:54.516Z,54.2
2023-05-08T01:59:56.761Z,54
2023-05-08T02:02:01.077Z,51.3
2023-05-08T02:04:02.186Z,55.1
2023-05-08T02:06:03.307Z,51.7
2023-05-08T02:07:05.408Z,60.7
2023-05-08T02:09:06.527Z,56.1
2023-05-08T02:23:17.495Z,56.5
2023-05-08T02:25:18.603Z,57.1
2023-05-08T02:29:24.023Z,54
2023-05-08T02:33:26.239Z,61.1
2023-05-08T02:39:29.601Z,60.4
2023-05-08T02:41:30.811Z,57.1
2023-05-08T02:43:35.110Z,56.7
2023-05-08T02:45:36.221Z,54.8
2023-05-08T02:47:37.357Z,56.9
2023-05-08T02:49:38.450Z,56.8
2023-05-08T02:51:39.573Z,56.3
2023-05-08T03:01:48.425Z,58.5
2023-05-08T03:04:16.326Z,54.5
2023-05-08T03:06:17.417Z,53.4
2023-05-08T03:10:22.870Z,53.7
2023-05-08T03:12:23.943Z,55.3
2023-05-08T03:14:25.064Z,54.1
2023-05-08T03:16:26.218Z,46.5
2023-05-08T03:18:27.267Z,52.6
2023-05-08T03:22:29.508Z,51.8
2023-05-08T03:26:34.908Z,52.6
2023-05-08T03:30:37.171Z,54
2023-05-08T03:32:38.294Z,48.4
2023-05-08T03:34:39.363Z,51.3
2023-05-08T03:36:40.479Z,46.2
2023-05-08T03:38:44.761Z,51
2023-05-08T03:50:51.435Z,61.4
2023-05-08T03:58:01.600Z,51
2023-05-08T04:00:02.734Z,55.6
2023-05-08T04:02:03.862Z,61.1
2023-05-08T04:04:04.981Z,65.5
2023-05-08T04:06:09.247Z,61.6
2023-05-08T04:08:10.391Z,58.9
2023-05-08T04:10:11.591Z,54.1
2023-05-08T04:12:12.638Z,56.5
2023-05-08T04:14:13.854Z,56
2023-05-08T04:16:15.166Z,59.9
2023-05-08T04:20:20.492Z,60
2023-05-08T04:22:21.612Z,58.9
2023-05-08T04:24:22.719Z,62.4
2023-05-08T04:26:23.828Z,62.4
2023-05-08T04:44:37.353Z,60
2023-05-08T04:48:43.097Z,63.8
2023-05-08T04:52:45.421Z,68.7
2023-05-08T04:53:47.562Z,68.9
2023-05-08T04:57:49.799Z,64.3
2023-05-08T04:59:51.014Z,71.1
2023-05-08T05:10:00.133Z,71.4
2023-05-08T05:12:01.339Z,74.5
2023-05-08T05:32:19.488Z,67.8
2023-05-08T05:34:20.576Z,71.4
2023-05-08T05:40:23.956Z,73.3
2023-05-08T05:42:25.068Z,63
2023-05-08T05:46:30.569Z,69.2
2023-05-08T05:48:31.669Z,66.1
2023-05-08T05:51:34.911Z,68.6
2023-05-08T05:53:36.039Z,60.8
2023-05-08T05:55:37.149Z,58.5
2023-05-08T05:57:41.431Z,50.9
2023-05-08T05:59:42.570Z,62.5
2023-05-08T06:01:43.852Z,57.4
2023-05-08T06:03:45.030Z,51.6
2023-05-08T06:05:46.018Z,54.5
2023-05-08T06:07:47.115Z,52.8
2023-05-08T06:09:48.217Z,45.7
2023-05-08T06:15:54.797Z,50.5
2023-05-08T06:17:55.910Z,47.3
2023-05-08T06:19:57.035Z,45
2023-05-08T06:21:58.096Z,47
2023-05-08T06:23:59.204Z,38.9
2023-05-08T06:26:03.512Z,33.5
2023-05-08T06:28:04.614Z,39.4
2023-05-08T06:30:05.694Z,36.9
2023-05-08T06:34:07.896Z,34.7
2023-05-08T06:36:08.991Z,45.7
2023-05-08T06:40:14.378Z,29.6
2023-05-08T06:42:15.482Z,33.3
2023-05-08T06:44:16.565Z,32.9
2023-05-08T06:46:44.576Z,39.8
2023-05-08T06:48:45.657Z,36.8
2023-05-08T06:56:53.206Z,33
2023-05-08T06:59:07.198Z,31.2
2023-05-08T07:00:55.379Z,35.6
2023-05-08T07:04:57.646Z,33.1
2023-05-08T07:07:01.808Z,35.8
2023-05-08T07:09:02.940Z,34.2
2023-05-08T07:11:04.012Z,35
2023-05-08T07:13:05.108Z,37.3
2023-05-08T07:15:17.839Z,38.7
2023-05-08T07:17:07.240Z,32.7
2023-05-08T07:19:08.307Z,37
2023-05-08T07:21:12.599Z,34.6
2023-05-08T07:23:13.663Z,31.7
2023-05-08T07:25:15.009Z,41.1
2023-05-08T07:27:15.823Z,41.3
2023-05-08T07:29:16.918Z,31.6
2023-05-08T07:31:17.961Z,32
2023-05-08T07:33:19.054Z,37.5
2023-05-08T07:35:23.324Z,39
2023-05-08T07:37:24.376Z,36.6
2023-05-08T07:40:27.592Z,34
2023-05-08T07:46:30.864Z,36.8
2023-05-08T07:48:35.101Z,35.1
2023-05-08T07:52:37.231Z,39.4
2023-05-08T07:54:38.293Z,32.6
2023-05-08T07:56:39.333Z,34.7
2023-05-08T07:58:40.435Z,29.8
2023-05-08T08:00:41.514Z,37.2
2023-05-08T08:02:45.828Z,30.3
2023-05-08T08:04:46.798Z,30.9
2023-05-08T08:06:47.867Z,33.1
2023-05-08T08:08:48.918Z,40.4
2023-05-08T08:10:49.991Z,34.8
2023-05-08T08:16:56.509Z,32.7
2023-05-08T08:18:57.453Z,34
2023-05-08T08:20:58.490Z,32.6
2023-05-08T08:25:00.638Z,33.7
2023-05-08T08:36:11.252Z,35
2023-05-08T08:38:12.290Z,53.4
2023-05-08T08:40:13.316Z,43.5
2023-05-08T08:42:14.371Z,36.6
2023-05-08T08:44:18.609Z,42.1
2023-05-08T08:46:19.713Z,32.3
2023-05-08T08:48:20.682Z,41.2
2023-05-08T08:50:21.749Z,32.3
2023-05-08T08:52:22.784Z,35.5
2023-05-08T08:54:23.827Z,30
2023-05-08T08:56:24.835Z,40.2
2023-05-08T08:58:29.114Z,34.8
2023-05-08T09:00:30.114Z,35.1
2023-05-08T09:02:31.245Z,49.4
2023-05-08T09:04:32.210Z,37
2023-05-08T09:06:33.240Z,41.5
2023-05-08T09:10:35.316Z,37.5
2023-05-08T09:12:39.551Z,49.2
2023-05-08T09:16:41.641Z,38.9
2023-05-08T09:18:42.645Z,36.2
2023-05-08T09:20:43.682Z,43.2
2023-05-08T09:22:44.684Z,40.7
2023-05-08T09:26:49.947Z,43.9
2023-05-08T09:28:51.008Z,35
2023-05-08T09:30:52.020Z,34.7
2023-05-08T09:31:54.173Z,43.9
2023-05-08T09:37:57.460Z,49.8
2023-05-08T09:42:03.917Z,43.6
2023-05-08T09:44:04.919Z,50.7
2023-05-08T09:46:05.945Z,39.6
2023-05-08T09:48:06.987Z,41.5
2023-05-08T09:50:07.903Z,47.4
2023-05-08T09:54:13.105Z,48.9
2023-05-08T10:00:16.463Z,52.6
2023-05-08T10:04:18.091Z,49.9
2023-05-08T10:06:19.043Z,55.9
2023-05-08T10:08:23.258Z,52.2
2023-05-08T10:10:24.273Z,52.7
2023-05-08T10:12:25.224Z,52
2023-05-08T10:16:27.265Z,52.8
2023-05-08T10:20:29.181Z,47.9
2023-05-08T10:24:34.380Z,61.6
2023-05-08T10:29:03.096Z,49.7
2023-05-08T10:31:04.150Z,53
2023-05-08T10:35:09.226Z,49.8
2023-05-08T10:37:10.211Z,49.8
2023-05-08T10:39:11.186Z,48.9
2023-05-08T10:41:12.144Z,46.7
2023-05-08T10:43:13.135Z,50.3
2023-05-08T10:45:14.115Z,50.8
2023-05-08T10:47:15.101Z,48.9
2023-05-08T10:49:19.324Z,47.9
2023-05-08T10:57:23.274Z,53.2
2023-05-08T10:59:24.298Z,60.8
2023-05-08T11:03:32.643Z,63.8
2023-05-08T11:05:30.498Z,53.5
2023-05-08T11:07:31.550Z,65
2023-05-08T11:09:32.546Z,59
2023-05-08T11:11:33.599Z,59.7
2023-05-08T11:13:34.634Z,60.5
2023-05-08T11:15:35.652Z,66
2023-05-08T11:17:39.888Z,73.6
2023-05-08T11:19:40.925Z,69.9
2023-05-08T11:21:41.965Z,63.5
2023-05-08T11:22:44.057Z,75.2
2023-05-08T11:24:45.108Z,89.4
2023-05-08T11:45:01.992Z,86.6
2023-05-08T11:47:03.206Z,84.4
2023-05-08T11:49:04.112Z,79.9
2023-05-08T11:51:05.184Z,58.5
2023-05-08T11:53:06.248Z,50.3
2023-05-08T11:55:07.323Z,43.6
2023-05-08T11:57:08.379Z,41.2
2023-05-08T11:59:12.645Z,46.4
2023-05-08T12:01:13.744Z,52.1
2023-05-08T12:05:15.833Z,47.8
2023-05-08T12:07:16.898Z,44.1
2023-05-08T12:09:17.989Z,50
2023-05-08T12:11:19.048Z,51.3
2023-05-08T12:13:23.376Z,51.4
2023-05-08T12:15:24.368Z,53.9
2023-05-08T12:17:25.534Z,45.9
2023-05-08T12:18:27.563Z,62.3
2023-05-08T12:34:39.213Z,49.2
2023-05-08T12:40:45.551Z,55.4
2023-05-08T12:44:47.664Z,53.5
2023-05-08T12:46:48.769Z,55.7
2023-05-08T12:48:49.742Z,71
2023-05-08T12:50:50.784Z,59
2023-05-08T12:52:52.198Z,59.5
2023-05-08T12:56:57.138Z,60.2
2023-05-08T13:03:00.439Z,60.6
2023-05-08T13:05:01.284Z,63
2023-05-08T13:07:02.329Z,60.5
2023-05-08T13:09:06.552Z,63.4
2023-05-08T13:13:08.689Z,60.6
2023-05-08T13:14:10.877Z,60.9
2023-05-08T13:20:14.116Z,55.5
2023-05-08T13:24:19.147Z,57.1
2023-05-08T13:30:22.243Z,52.7
2023-05-08T13:32:23.308Z,58.2
2023-05-08T13:36:28.533Z,67.8
2023-05-08T13:38:29.544Z,65.7
2023-05-08T13:40:30.587Z,61.6
2023-05-08T13:42:31.609Z,54.7
2023-05-08T13:44:32.628Z,55.3
2023-05-08T13:46:33.680Z,47.7
2023-05-08T13:48:34.705Z,56
2023-05-08T13:50:38.936Z,59.3
2023-05-08T13:52:39.918Z,48.8
2023-05-08T13:54:40.953Z,52.7
2023-05-08T13:56:41.973Z,58.8
2023-05-08T13:58:43.018Z,53.3
2023-05-08T14:00:44.011Z,60.2
2023-05-08T14:02:45.261Z,55.1
2023-05-08T14:04:49.278Z,61.4
2023-05-08T14:06:50.280Z,63.4
2023-05-08T14:08:54.207Z,58.6
2023-05-08T14:11:19.120Z,77.9
2023-05-08T14:15:22.170Z,56.2
2023-05-08T14:17:25.450Z,51.4
2023-05-08T14:21:27.387Z,58
2023-05-08T14:31:35.703Z,72.2
2023-05-08T14:33:36.644Z,59.9
2023-05-08T14:37:38.675Z,61.9
2023-05-08T14:41:40.699Z,49.2
2023-05-08T14:43:41.701Z,49.9
2023-05-08T14:45:45.910Z,48
2023-05-08T14:47:46.937Z,49.7
2023-05-08T14:49:47.929Z,53.8
2023-05-08T14:51:48.933Z,47.9
2023-05-08T14:55:51.423Z,52.9
2023-05-08T14:57:51.962Z,50.7
2023-05-08T14:59:56.213Z,55.4
2023-05-08T15:01:57.236Z,46.1
2023-05-08T15:03:58.308Z,53.4
2023-05-08T15:05:00.318Z,50.9
2023-05-08T15:09:02.339Z,57
2023-05-08T15:11:03.344Z,51
2023-05-08T15:15:08.578Z,55.3
2023-05-08T15:19:10.586Z,72.6
2023-05-08T15:21:11.609Z,58.8
2023-05-08T15:25:13.840Z,64.4
2023-05-08T15:27:17.897Z,65.4
2023-05-08T15:29:20.452Z,73.6
2023-05-08T15:31:21.503Z,78.1
2023-05-08T15:33:22.474Z,86.3
2023-05-08T15:35:23.540Z,83.2
2023-05-08T15:37:24.572Z,74.6
2023-05-08T15:39:25.622Z,67
2023-05-08T15:41:29.849Z,74.8
2023-05-08T15:43:30.883Z,71.9
2023-05-08T15:45:31.961Z,70.1
2023-05-08T15:47:32.974Z,68
2023-05-08T15:49:34.015Z,78.5
2023-05-08T15:51:35.051Z,69.7
2023-05-08T15:53:36.094Z,79.8
2023-05-08T15:55:40.315Z,74.3
2023-05-08T15:57:41.386Z,75.2
2023-05-08T15:59:42.426Z,76.2
2023-05-08T16:00:45.666Z,80
2023-05-08T16:02:45.652Z,73.9
2023-05-08T16:04:46.643Z,79.5
2023-05-08T16:06:47.669Z,81.4
2023-05-08T16:08:51.909Z,88.4
2023-05-08T16:10:52.970Z,81.6
2023-05-08T16:12:54.034Z,79.1
2023-05-08T16:14:55.061Z,77.2
2023-05-08T16:16:56.095Z,76.7
2023-05-08T16:27:04.542Z,83.2
2023-05-08T16:29:05.586Z,81.9
2023-05-08T16:31:06.683Z,71.6
2023-05-08T16:39:13.980Z,68.9
2023-05-08T16:43:16.065Z,75.2
2023-05-08T16:47:18.159Z,76.4
2023-05-08T16:53:24.463Z,67.7
2023-05-08T16:55:25.516Z,59.2
2023-05-08T16:56:27.627Z,63
2023-05-08T17:00:29.699Z,66.9
2023-05-08T17:02:30.876Z,78.9
2023-05-08T17:04:34.986Z,76
2023-05-08T17:06:36.028Z,74.3
2023-05-08T17:08:37.079Z,68.5
2023-05-08T17:12:39.174Z,77.8
2023-05-08T17:14:40.246Z,73.3
2023-05-08T17:18:45.494Z,72
2023-05-08T17:22:47.561Z,74.9
2023-05-08T17:24:48.656Z,70.5
2023-05-08T17:26:49.643Z,68.9
2023-05-08T17:36:58.114Z,67.6
2023-05-08T17:38:59.119Z,70.5
2023-05-08T17:43:01.258Z,66.5
2023-05-08T17:45:02.304Z,60
2023-05-08T17:47:06.533Z,54.9
2023-05-08T17:49:07.591Z,57.3
2023-05-08T17:51:08.643Z,62
2023-05-08T17:53:36.500Z,61.4
2023-05-08T17:55:37.559Z,59.5
2023-05-08T17:57:38.626Z,72.1
2023-05-08T17:59:43.099Z,74.1
2023-05-08T18:01:44.254Z,73.5
2023-05-08T18:03:45.262Z,64.1
2023-05-08T18:07:47.336Z,68.8
2023-05-08T18:09:48.360Z,71.5
2023-05-08T18:13:53.660Z,78.9
2023-05-08T18:15:54.738Z,86.9
2023-05-08T18:17:55.802Z,76.7
2023-05-08T18:23:58.951Z,70.9
2023-05-08T18:28:04.272Z,72.6
2023-05-08T18:30:05.324Z,68.9
2023-05-08T18:32:06.388Z,76.6
2023-05-08T18:34:07.437Z,71.6
2023-05-08T18:42:14.863Z,47.7
2023-05-08T18:46:17.070Z,34.7
2023-05-08T18:47:19.104Z,31.8
2023-05-08T18:49:20.169Z,23.8
2023-05-08T18:51:21.243Z,25.8
2023-05-08T18:53:22.304Z,34.1
2023-05-08T18:55:26.559Z,34.4
2023-05-08T18:57:27.628Z,36.4
2023-05-08T18:59:28.696Z,34.9
2023-05-08T19:01:29.783Z,26.6
2023-05-08T19:03:30.960Z,32.9
2023-05-08T19:09:37.251Z,82.5
2023-05-08T19:11:38.354Z,70.4
2023-05-08T19:17:41.957Z,97.7
2023-05-08T19:21:44.050Z,105.2
2023-05-08T19:23:48.329Z,110.8
2023-05-08T19:27:50.503Z,108.6
2023-05-08T19:29:51.600Z,99.5
2023-05-08T19:31:52.737Z,93.4
2023-05-08T19:33:53.777Z,117.8
2023-05-08T19:35:54.853Z,99.1
2023-05-08T19:37:59.137Z,133.5
2023-05-08T19:40:00.301Z,126.4
2023-05-08T19:43:03.434Z,140.5
2023-05-08T19:45:04.566Z,124.2
2023-05-08T19:47:05.646Z,124.2
2023-05-08T19:49:06.755Z,107.9
2023-05-08T19:55:13.213Z,112.4
2023-05-08T20:07:22.955Z,136
2023-05-08T20:09:24.051Z,126.8
2023-05-08T20:11:25.167Z,135.5
2023-05-08T20:13:26.294Z,134.4
2023-05-08T20:15:27.357Z,144.9
2023-05-08T20:17:28.458Z,152.6
2023-05-08T20:21:33.810Z,142.8
2023-05-08T20:25:36.004Z,156.2
2023-05-08T20:27:37.106Z,135.3
2023-05-08T20:31:39.337Z,146
2023-05-08T20:38:47.925Z,144.5
2023-05-08T20:40:49.019Z,145.4
2023-05-08T20:42:50.120Z,132.4
2023-05-08T20:44:51.216Z,149
2023-05-08T20:46:55.492Z,153
2023-05-08T20:50:57.703Z,145.8
2023-05-08T21:05:08.801Z,149.1
2023-05-08T21:07:09.663Z,140.2
2023-05-08T21:09:10.745Z,149.9
2023-05-08T21:11:11.857Z,148.8
2023-05-08T21:13:13.004Z,154.3
2023-05-08T21:15:17.229Z,158.6
2023-05-08T21:17:18.339Z,143.4
2023-05-08T21:19:20.967Z,154.1
2023-05-08T21:21:22.026Z,175.5
2023-05-08T21:23:23.148Z,145.4
2023-05-08T21:25:24.238Z,163.9
2023-05-08T21:27:25.320Z,148.8
2023-05-08T21:29:29.624Z,163.4
2023-05-08T21:31:30.786Z,154.1
2023-05-08T21:33:31.806Z,160.4
2023-05-08T21:38:00.885Z,154.8
2023-05-08T21:44:07.384Z,145
2023-05-08T21:52:11.764Z,149.4
2023-05-08T21:54:12.895Z,163.4
2023-05-08T21:56:17.149Z,160.6
2023-05-08T22:02:20.470Z,144.3
2023-05-08T22:04:21.567Z,160
2023-05-08T22:06:22.687Z,139.3
2023-05-08T22:08:23.796Z,150.2
2023-05-08T22:10:28.062Z,154.5
2023-05-08T22:14:30.302Z,146.8
2023-05-08T22:16:31.412Z,153
2023-05-08T22:20:33.590Z,158.6
2023-05-08T22:22:34.671Z,160.7
2023-05-08T22:24:38.969Z,156.5
2023-05-08T22:29:43.367Z,174.2
2023-05-08T22:31:44.531Z,156.4
2023-05-08T22:33:45.575Z,173
2023-05-08T22:35:46.662Z,172.4
2023-05-08T22:37:50.965Z,172.6
2023-05-08T22:39:52.042Z,176.6
2023-05-08T22:41:53.133Z,165.3
2023-05-08T22:43:54.273Z,182.4
2023-05-08T22:45:55.379Z,161.1
2023-05-08T22:47:56.465Z,187
2023-05-08T22:49:57.567Z,161.2
2023-05-08T22:52:01.840Z,176.2
2023-05-08T22:54:02.939Z,154.2
2023-05-08T22:56:04.063Z,157.7
2023-05-08T22:58:05.178Z,172.1
2023-05-08T23:00:06.276Z,173.9
2023-05-08T23:02:07.369Z,163.3
2023-05-08T23:04:08.502Z,164.9
2023-05-08T23:06:12.739Z,177.5
2023-05-08T23:08:13.851Z,166.2
2023-05-08T23:10:14.942Z,181.7
2023-05-08T23:12:16.060Z,164.4
2023-05-08T23:14:17.180Z,171.8
2023-05-08T23:16:18.288Z,172.7
2023-05-08T23:18:19.345Z,167.3
2023-05-08T23:20:23.663Z,166.1
2023-05-08T23:24:25.863Z,169.5
2023-05-08T23:25:27.990Z,180.9
2023-05-08T23:29:30.179Z,179.7
2023-05-08T23:31:31.330Z,177.8
2023-05-08T23:33:35.893Z,184.9
2023-05-08T23:35:36.682Z,188.6
2023-05-08T23:39:38.882Z,179.4
2023-05-08T23:41:39.971Z,198
2023-05-08T23:43:41.100Z,176
2023-05-08T23:47:46.574Z,182.8
2023-05-08T23:49:47.617Z,200.4
2023-05-08T23:51:48.713Z,201.3
2023-05-08T23:53:49.823Z,184.6
2023-05-08T23:55:50.935Z,184.6
2023-05-08T23:57:52.017Z,194.7
2023-05-08T23:59:53.135Z,210
